createdAt,value
2022-10-12T00:01:54.441Z,7.60
2022-10-12T00:04:21.322Z,7.60
2022-10-12T00:06:48.189Z,7.60
2022-10-12T00:09:15.033Z,7.50
2022-10-12T00:11:42.035Z,7.50
2022-10-12T00:14:08.859Z,7.50
2022-10-12T00:16:36.475Z,7.40
2022-10-12T00:19:03.381Z,7.40
2022-10-12T00:21:30.393Z,7.40
2022-10-12T00:23:58.450Z,7.40
2022-10-12T00:26:25.677Z,7.30
2022-10-12T00:28:57.512Z,7.30
2022-10-12T00:31:24.544Z,7.30
2022-10-12T00:33:51.378Z,7.20
2022-10-12T00:36:18.190Z,7.20
2022-10-12T00:38:45.256Z,7.20
2022-10-12T00:41:12.656Z,7.20
2022-10-12T00:43:42.021Z,7.20
2022-10-12T00:46:17.090Z,7.30
2022-10-12T00:48:44.825Z,7.30
2022-10-12T00:51:11.827Z,7.20
2022-10-12T00:53:43.078Z,7.20
2022-10-12T00:56:18.186Z,7.20
2022-10-12T00:58:45.954Z,7.20
2022-10-12T01:01:12.843Z,7.20
2022-10-12T01:03:40.001Z,7.10
2022-10-12T01:06:07.560Z,7.10
2022-10-12T01:08:34.714Z,7.10
2022-10-12T01:11:01.658Z,7.00
2022-10-12T01:13:28.531Z,7.00
2022-10-12T01:15:55.391Z,7.00
2022-10-12T01:18:25.959Z,7.10
2022-10-12T01:20:58.433Z,7.10
2022-10-12T01:23:37.198Z,7.10
2022-10-12T01:26:26.494Z,7.10
2022-10-12T01:29:11.358Z,7.10
2022-10-12T01:31:42.859Z,7.10
2022-10-12T01:34:12.480Z,7.10
2022-10-12T01:36:41.652Z,7.00
2022-10-12T01:39:29.503Z,7.00
2022-10-12T01:42:02.667Z,7.00
2022-10-12T01:44:30.336Z,7.00
2022-10-12T01:46:57.412Z,7.00
2022-10-12T01:49:28.801Z,7.00
2022-10-12T01:52:18.141Z,7.00
2022-10-12T01:54:57.205Z,7.10
2022-10-12T01:57:32.975Z,7.00
2022-10-12T01:59:59.798Z,6.90
2022-10-12T02:02:40.803Z,7.00
2022-10-12T02:05:13.530Z,7.00
2022-10-12T02:07:40.699Z,7.00
2022-10-12T02:10:10.815Z,6.90
2022-10-12T02:12:39.950Z,6.90
2022-10-12T02:15:07.789Z,6.80
2022-10-12T02:17:35.157Z,6.80
2022-10-12T02:20:03.507Z,6.80
2022-10-12T02:22:35.874Z,6.80
2022-10-12T02:25:08.152Z,6.80
2022-10-12T02:27:37.050Z,6.70
2022-10-12T02:30:04.382Z,6.70
2022-10-12T02:32:40.342Z,6.70
2022-10-12T02:35:09.470Z,6.70
2022-10-12T02:37:48.978Z,6.70
2022-10-12T02:40:19.116Z,6.70
2022-10-12T02:43:09.830Z,6.70
2022-10-12T02:45:38.998Z,6.70
2022-10-12T02:48:07.466Z,6.70
2022-10-12T02:50:34.618Z,6.60
2022-10-12T02:53:01.994Z,6.60
2022-10-12T02:55:29.977Z,6.60
2022-10-12T02:57:56.788Z,6.60
2022-10-12T03:00:23.655Z,6.60
2022-10-12T03:02:50.711Z,6.50
2022-10-12T03:05:17.559Z,6.40
2022-10-12T03:07:44.377Z,6.40
2022-10-12T03:10:11.873Z,6.40
2022-10-12T03:12:38.649Z,6.40
2022-10-12T03:15:05.739Z,6.40
2022-10-12T03:17:32.601Z,6.40
2022-10-12T03:19:59.784Z,6.50
2022-10-12T03:22:26.633Z,6.50
2022-10-12T03:24:53.574Z,6.40
2022-10-12T03:27:20.524Z,6.40
2022-10-12T03:29:47.364Z,6.40
2022-10-12T03:32:16.157Z,6.40
2022-10-12T03:34:43.016Z,6.40
2022-10-12T03:37:09.930Z,6.40
2022-10-12T03:39:36.736Z,6.40
2022-10-12T03:42:03.719Z,6.30
2022-10-12T03:44:30.568Z,6.40
2022-10-12T03:46:57.471Z,6.40
2022-10-12T03:49:24.361Z,6.40
2022-10-12T03:51:51.288Z,6.50
2022-10-12T03:54:18.099Z,6.50
2022-10-12T03:56:44.925Z,6.50
2022-10-12T03:59:11.838Z,6.50
2022-10-12T04:01:39.195Z,6.50
2022-10-12T04:04:06.094Z,6.40
2022-10-12T04:06:33.015Z,6.40
2022-10-12T04:08:59.866Z,6.40
2022-10-12T04:11:26.658Z,6.40
2022-10-12T04:13:53.491Z,6.40
2022-10-12T04:16:20.330Z,6.40
2022-10-12T04:18:47.197Z,6.50
2022-10-12T04:21:15.351Z,6.50
2022-10-12T04:23:42.539Z,6.50
2022-10-12T04:26:09.469Z,6.50
2022-10-12T04:28:36.414Z,6.50
2022-10-12T04:31:03.272Z,6.50
2022-10-12T04:33:30.077Z,6.40
2022-10-12T04:35:56.912Z,6.40
2022-10-12T04:38:23.754Z,6.30
2022-10-12T04:40:50.591Z,6.30
2022-10-12T04:43:17.902Z,6.30
2022-10-12T04:45:45.303Z,6.20
2022-10-12T04:48:12.118Z,6.20
2022-10-12T04:50:39.244Z,6.20
2022-10-12T04:53:06.086Z,6.20
2022-10-12T04:55:32.906Z,6.20
2022-10-12T04:58:00.883Z,6.20
2022-10-12T05:00:27.745Z,6.20
2022-10-12T05:02:54.582Z,6.20
2022-10-12T05:05:21.473Z,6.30
2022-10-12T05:07:48.419Z,6.30
2022-10-12T05:10:15.403Z,6.30
2022-10-12T05:12:43.357Z,6.20
2022-10-12T05:15:10.831Z,6.20
2022-10-12T05:17:37.967Z,6.20
2022-10-12T05:20:05.186Z,6.20
2022-10-12T05:22:32.132Z,6.20
2022-10-12T05:24:58.970Z,6.20
2022-10-12T05:27:25.836Z,6.20
2022-10-12T05:29:52.685Z,6.20
2022-10-12T05:32:19.519Z,6.20
2022-10-12T05:34:46.382Z,6.10
2022-10-12T05:37:13.218Z,6.20
2022-10-12T05:39:40.098Z,6.10
2022-10-12T05:42:07.142Z,6.10
2022-10-12T05:44:34.384Z,6.10
2022-10-12T05:47:01.250Z,6.10
2022-10-12T05:49:28.896Z,6.10
2022-10-12T05:51:55.764Z,6.10
2022-10-12T05:54:22.581Z,6.10
2022-10-12T05:56:49.448Z,6.00
2022-10-12T05:59:16.292Z,6.00
2022-10-12T06:01:43.166Z,6.00
2022-10-12T06:04:10.249Z,6.00
2022-10-12T06:06:37.128Z,6.00
2022-10-12T06:09:04.086Z,6.00
2022-10-12T06:11:34.031Z,6.00
2022-10-12T06:14:03.388Z,6.00
2022-10-12T06:16:30.307Z,6.00
2022-10-12T06:18:57.304Z,6.00
2022-10-12T06:21:39.490Z,6.00
2022-10-12T06:24:06.530Z,6.00
2022-10-12T06:26:33.985Z,6.10
2022-10-12T06:29:01.013Z,6.10
2022-10-12T06:31:28.848Z,6.10
2022-10-12T06:33:55.694Z,6.10
2022-10-12T06:36:23.798Z,6.20
2022-10-12T06:38:51.054Z,6.20
2022-10-12T06:41:18.029Z,6.30
2022-10-12T06:43:45.128Z,6.30
2022-10-12T06:46:12.215Z,6.30
2022-10-12T06:48:39.269Z,6.40
2022-10-12T06:51:06.197Z,6.40
2022-10-12T06:53:35.105Z,6.40
2022-10-12T06:56:08.918Z,6.40
2022-10-12T06:58:35.969Z,6.50
2022-10-12T07:01:06.603Z,6.50
2022-10-12T07:03:33.661Z,6.60
2022-10-12T07:06:10.835Z,6.70
2022-10-12T07:08:38.175Z,6.80
2022-10-12T07:11:06.745Z,6.90
2022-10-12T07:13:34.128Z,7.00
2022-10-12T07:16:01.237Z,7.10
2022-10-12T07:18:28.113Z,7.20
2022-10-12T07:20:59.939Z,7.20
2022-10-12T07:23:27.701Z,7.30
2022-10-12T07:25:55.265Z,7.30
2022-10-12T07:28:23.183Z,7.40
2022-10-12T07:30:50.177Z,7.50
2022-10-12T07:33:17.146Z,7.50
2022-10-12T07:36:10.746Z,7.70
2022-10-12T07:38:32.604Z,7.80
2022-10-12T07:41:03.454Z,7.80
2022-10-12T07:43:30.798Z,7.90
2022-10-12T07:45:57.885Z,8.00
2022-10-12T07:48:24.823Z,8.10
2022-10-12T07:50:51.796Z,8.20
2022-10-12T07:53:18.644Z,8.30
2022-10-12T07:55:45.518Z,8.40
2022-10-12T07:58:13.087Z,8.60
2022-10-12T08:00:40.143Z,8.70
2022-10-12T08:03:07.319Z,8.90
2022-10-12T08:05:34.215Z,9.00
2022-10-12T08:08:01.060Z,9.20
2022-10-12T08:10:28.363Z,9.30
2022-10-12T08:12:55.176Z,9.40
2022-10-12T08:15:22.529Z,9.50
2022-10-12T08:17:49.859Z,9.60
2022-10-12T08:20:16.735Z,9.70
2022-10-12T08:22:43.570Z,9.80
2022-10-12T08:25:10.593Z,10.00
2022-10-12T08:27:38.786Z,10.10
2022-10-12T08:30:06.662Z,10.20
2022-10-12T08:32:33.571Z,10.20
2022-10-12T08:35:00.649Z,10.30
2022-10-12T08:37:27.506Z,10.40
2022-10-12T08:39:54.408Z,10.50
2022-10-12T08:42:27.081Z,10.50
2022-10-12T08:45:05.401Z,10.60
2022-10-12T08:47:32.240Z,10.70
2022-10-12T08:50:00.514Z,10.70
2022-10-12T08:52:42.853Z,10.80
2022-10-12T08:55:32.707Z,11.00
2022-10-12T08:57:59.617Z,11.10
2022-10-12T09:00:27.065Z,11.10
2022-10-12T09:03:02.826Z,11.20
2022-10-12T09:05:33.603Z,11.20
2022-10-12T09:08:07.246Z,11.30
2022-10-12T09:10:47.345Z,11.40
2022-10-12T09:13:34.183Z,11.50
2022-10-12T09:16:06.215Z,11.60
2022-10-12T09:18:43.606Z,11.70
2022-10-12T09:21:16.922Z,11.80
2022-10-12T09:23:47.221Z,11.90
2022-10-12T09:26:14.035Z,12.00
2022-10-12T09:28:43.589Z,12.10
2022-10-12T09:31:10.516Z,12.20
2022-10-12T09:33:57.726Z,12.30
2022-10-12T09:36:26.788Z,12.40
2022-10-12T09:38:53.974Z,12.60
2022-10-12T09:41:22.169Z,12.70
2022-10-12T09:43:51.239Z,12.80
2022-10-12T09:46:23.000Z,12.90
2022-10-12T09:49:00.327Z,13.00
2022-10-12T09:51:30.810Z,13.20
2022-10-12T09:54:03.454Z,13.30
2022-10-12T09:56:44.637Z,13.40
2022-10-12T09:59:28.671Z,13.50
2022-10-12T10:01:59.625Z,13.70
2022-10-12T10:04:27.534Z,13.70
2022-10-12T10:06:54.607Z,13.80
2022-10-12T10:09:32.062Z,13.90
2022-10-12T10:12:11.798Z,14.00
2022-10-12T10:14:38.858Z,14.00
2022-10-12T10:17:05.651Z,14.20
2022-10-12T10:19:32.657Z,14.30
2022-10-12T10:22:04.647Z,14.40
2022-10-12T10:24:32.292Z,14.50
2022-10-12T10:26:59.199Z,14.60
2022-10-12T10:29:40.786Z,14.70
2022-10-12T10:32:12.118Z,14.80
2022-10-12T10:34:41.167Z,14.80
2022-10-12T10:37:13.600Z,14.80
2022-10-12T10:39:48.182Z,14.80
2022-10-12T10:42:19.966Z,15.00
2022-10-12T10:44:49.440Z,15.10
2022-10-12T10:47:16.384Z,15.30
2022-10-12T10:49:48.653Z,15.30
2022-10-12T10:52:20.178Z,15.50
2022-10-12T10:54:47.018Z,15.60
2022-10-12T10:57:16.599Z,15.70
2022-10-12T11:00:37.274Z,15.80
2022-10-12T11:02:57.693Z,16.00
2022-10-12T11:05:35.695Z,16.20
2022-10-12T11:08:06.850Z,16.40
2022-10-12T11:10:41.458Z,16.50
2022-10-12T11:13:11.412Z,16.60
2022-10-12T11:15:42.706Z,16.80
2022-10-12T11:18:18.771Z,17.00
2022-10-12T11:20:48.189Z,17.10
2022-10-12T11:23:18.548Z,17.40
2022-10-12T11:26:09.265Z,17.50
2022-10-12T11:28:37.804Z,17.60
2022-10-12T11:31:05.509Z,17.60
2022-10-12T11:33:38.640Z,17.50
2022-10-12T11:36:11.556Z,17.50
2022-10-12T11:38:46.152Z,17.60
2022-10-12T11:42:09.764Z,17.60
2022-10-12T11:44:38.927Z,17.60
2022-10-12T11:47:15.194Z,17.60
2022-10-12T11:49:49.840Z,17.60
2022-10-12T11:52:17.451Z,17.60
2022-10-12T11:54:47.901Z,17.60
2022-10-12T11:57:19.446Z,17.60
2022-10-12T11:59:55.610Z,17.60
2022-10-12T12:02:24.348Z,17.70
2022-10-12T12:04:51.512Z,17.80
2022-10-12T12:07:36.988Z,17.90
2022-10-12T12:10:27.926Z,17.90
2022-10-12T12:13:13.326Z,18.10
2022-10-12T12:15:43.867Z,18.10
2022-10-12T12:18:13.776Z,18.20
2022-10-12T12:20:46.975Z,18.40
2022-10-12T12:23:32.623Z,18.50
2022-10-12T12:26:11.789Z,18.60
2022-10-12T12:29:04.632Z,18.70
2022-10-12T12:31:31.551Z,18.80
2022-10-12T12:34:01.576Z,18.90
2022-10-12T12:36:32.351Z,18.90
2022-10-12T12:38:59.449Z,18.90
2022-10-12T12:41:54.015Z,18.90
2022-10-12T12:44:40.667Z,18.90
2022-10-12T12:47:26.457Z,19.00
2022-10-12T12:49:56.463Z,18.90
2022-10-12T12:52:31.712Z,18.80
2022-10-12T12:54:58.585Z,18.70
2022-10-12T12:57:25.427Z,18.70
2022-10-12T13:00:10.867Z,18.60
2022-10-12T13:02:38.538Z,18.50
2022-10-12T13:05:23.943Z,18.50
2022-10-12T13:08:04.037Z,18.50
2022-10-12T13:10:50.855Z,18.40
2022-10-12T13:13:38.985Z,18.50
2022-10-12T13:17:09.418Z,18.50
2022-10-12T13:19:13.248Z,18.70
2022-10-12T13:21:41.262Z,18.80
2022-10-12T13:24:14.625Z,18.90
2022-10-12T13:26:43.480Z,19.10
2022-10-12T13:29:15.581Z,19.30
2022-10-12T13:31:44.569Z,19.30
2022-10-12T13:34:20.185Z,19.50
2022-10-12T13:36:50.717Z,19.60
2022-10-12T13:39:19.402Z,19.60
2022-10-12T13:41:46.915Z,19.60
2022-10-12T13:44:22.197Z,19.70
2022-10-12T13:46:51.663Z,19.80
2022-10-12T13:49:19.004Z,19.90
2022-10-12T13:51:47.337Z,19.90
2022-10-12T13:54:34.457Z,20.00
2022-10-12T13:57:03.683Z,20.10
2022-10-12T13:59:33.799Z,20.20
2022-10-12T14:02:02.065Z,20.20
2022-10-12T14:04:30.305Z,20.20
2022-10-12T14:07:00.325Z,20.10
2022-10-12T14:09:28.502Z,20.10
2022-10-12T14:11:55.788Z,20.20
2022-10-12T14:14:30.756Z,20.30
2022-10-12T14:16:57.612Z,20.30
2022-10-12T14:19:36.652Z,20.30
2022-10-12T14:22:04.006Z,20.30
2022-10-12T14:24:31.361Z,20.30
2022-10-12T14:27:00.186Z,20.30
2022-10-12T14:29:43.688Z,20.20
2022-10-12T14:32:10.561Z,20.20
2022-10-12T14:34:37.408Z,20.10
2022-10-12T14:37:04.207Z,20.10
2022-10-12T14:39:31.179Z,20.10
2022-10-12T14:42:00.258Z,20.10
2022-10-12T14:44:28.531Z,20.10
2022-10-12T14:47:09.808Z,20.00
2022-10-12T14:49:41.469Z,20.00
2022-10-12T14:52:15.093Z,19.90
2022-10-12T14:54:42.113Z,19.90
2022-10-12T14:57:13.402Z,20.00
2022-10-12T14:59:40.664Z,20.00
2022-10-12T15:02:18.168Z,20.20
2022-10-12T15:04:45.453Z,20.30
2022-10-12T15:07:14.517Z,20.40
2022-10-12T15:09:45.652Z,20.40
2022-10-12T15:12:13.589Z,20.40
2022-10-12T15:14:41.867Z,20.40
2022-10-12T15:17:16.085Z,20.30
2022-10-12T15:19:43.637Z,20.30
2022-10-12T15:22:14.473Z,20.20
2022-10-12T15:24:41.293Z,20.10
2022-10-12T15:27:08.180Z,20.00
2022-10-12T15:29:35.067Z,19.90
2022-10-12T15:32:02.006Z,19.80
2022-10-12T15:34:28.856Z,19.70
2022-10-12T15:36:55.792Z,19.70
2022-10-12T15:39:22.641Z,19.60
2022-10-12T15:41:49.680Z,19.60
2022-10-12T15:44:17.034Z,19.60
2022-10-12T15:46:44.500Z,19.60
2022-10-12T15:49:14.145Z,19.60
2022-10-12T15:51:46.970Z,19.70
2022-10-12T15:54:14.233Z,19.70
2022-10-12T15:56:41.217Z,19.60
2022-10-12T15:59:08.165Z,19.50
2022-10-12T16:01:35.741Z,19.40
2022-10-12T16:04:03.267Z,19.40
2022-10-12T16:06:30.185Z,19.20
2022-10-12T16:08:57.012Z,19.10
2022-10-12T16:11:23.855Z,19.00
2022-10-12T16:13:56.331Z,18.80
2022-10-12T16:16:23.903Z,18.60
2022-10-12T16:18:52.192Z,18.50
2022-10-12T16:21:19.038Z,18.40
2022-10-12T16:23:45.929Z,18.40
2022-10-12T16:26:14.594Z,18.20
2022-10-12T16:28:41.690Z,18.10
2022-10-12T16:31:10.245Z,17.90
2022-10-12T16:33:37.185Z,17.80
2022-10-12T16:36:11.297Z,17.60
2022-10-12T16:38:38.383Z,17.50
2022-10-12T16:41:15.578Z,17.40
2022-10-12T16:43:42.514Z,17.30
2022-10-12T16:46:09.844Z,17.20
2022-10-12T16:48:36.772Z,17.10
2022-10-12T16:51:07.675Z,17.00
2022-10-12T16:53:34.615Z,16.90
2022-10-12T16:56:01.742Z,16.80
2022-10-12T16:58:28.626Z,16.70
2022-10-12T17:00:55.753Z,16.60
2022-10-12T17:03:24.440Z,16.50
2022-10-12T17:05:58.208Z,16.40
2022-10-12T17:08:25.120Z,16.20
2022-10-12T17:10:52.004Z,16.10
2022-10-12T17:13:18.906Z,15.90
2022-10-12T17:15:45.712Z,15.80
2022-10-12T17:18:12.574Z,15.70
2022-10-12T17:20:39.488Z,15.50
2022-10-12T17:23:06.279Z,15.40
2022-10-12T17:25:33.217Z,15.30
2022-10-12T17:28:00.032Z,15.20
2022-10-12T17:30:26.975Z,15.10
2022-10-12T17:32:53.802Z,15.00
2022-10-12T17:35:20.664Z,14.90
2022-10-12T17:37:47.513Z,14.80
2022-10-12T17:40:14.369Z,14.70
2022-10-12T17:42:41.262Z,14.60
2022-10-12T17:45:08.417Z,14.50
2022-10-12T17:47:35.613Z,14.40
2022-10-12T17:50:02.515Z,14.30
2022-10-12T17:52:29.393Z,14.20
2022-10-12T17:54:56.244Z,14.20
2022-10-12T17:57:23.186Z,14.10
2022-10-12T17:59:50.003Z,14.00
2022-10-12T18:02:16.848Z,14.00
2022-10-12T18:04:43.686Z,13.90
2022-10-12T18:07:11.168Z,13.80
2022-10-12T18:09:38.038Z,13.80
2022-10-12T18:12:05.098Z,13.80
2022-10-12T18:14:31.895Z,13.70
2022-10-12T18:17:00.888Z,13.70
2022-10-12T18:19:27.710Z,13.60
2022-10-12T18:21:54.540Z,13.60
2022-10-12T18:24:23.411Z,13.50
2022-10-12T18:26:50.377Z,13.40
2022-10-12T18:29:17.488Z,13.40
2022-10-12T18:31:44.394Z,13.40
2022-10-12T18:34:11.272Z,13.40
2022-10-12T18:36:39.792Z,13.40
2022-10-12T18:39:06.695Z,13.40
2022-10-12T18:41:33.562Z,13.40
2022-10-12T18:44:01.376Z,13.30
2022-10-12T18:46:28.878Z,13.30
2022-10-12T18:48:56.245Z,13.30
2022-10-12T18:51:32.886Z,13.30
2022-10-12T18:54:00.879Z,13.30
2022-10-12T18:56:28.129Z,13.30
2022-10-12T18:58:55.287Z,13.30
2022-10-12T19:01:24.520Z,13.30
2022-10-12T19:03:51.909Z,13.30
2022-10-12T19:06:20.286Z,13.30
2022-10-12T19:08:48.257Z,13.30
2022-10-12T19:11:17.734Z,13.30
2022-10-12T19:13:45.011Z,13.30
2022-10-12T19:16:13.136Z,13.30
2022-10-12T19:18:40.561Z,13.20
2022-10-12T19:21:12.059Z,13.30
2022-10-12T19:23:39.228Z,13.20
2022-10-12T19:26:07.591Z,13.30
2022-10-12T19:28:35.039Z,13.20
2022-10-12T19:31:02.608Z,13.20
2022-10-12T19:33:29.483Z,13.20
2022-10-12T19:35:56.338Z,13.20
2022-10-12T19:38:23.240Z,13.20
2022-10-12T19:40:50.986Z,13.20
2022-10-12T19:43:17.983Z,13.20
2022-10-12T19:45:44.911Z,13.10
2022-10-12T19:48:12.299Z,13.10
2022-10-12T19:50:39.575Z,13.20
2022-10-12T19:53:06.861Z,13.10
2022-10-12T19:55:34.204Z,13.10
2022-10-12T19:58:01.414Z,13.10
2022-10-12T20:00:28.544Z,13.10
2022-10-12T20:02:55.465Z,13.10
2022-10-12T20:05:22.374Z,13.10
2022-10-12T20:07:49.206Z,13.00
2022-10-12T20:10:16.077Z,13.00
2022-10-12T20:12:42.994Z,13.00
2022-10-12T20:15:10.248Z,13.00
2022-10-12T20:17:37.794Z,13.00
2022-10-12T20:20:05.745Z,13.00
2022-10-12T20:22:32.626Z,13.00
2022-10-12T20:24:59.651Z,13.00
2022-10-12T20:27:26.501Z,13.20
2022-10-12T20:29:53.442Z,13.40
2022-10-12T20:32:20.481Z,13.60
2022-10-12T20:34:52.430Z,13.80
2022-10-12T20:37:21.395Z,14.00
2022-10-12T20:39:51.594Z,14.10
2022-10-12T20:42:21.651Z,14.20
2022-10-12T20:44:49.052Z,14.30
2022-10-12T20:47:16.573Z,14.30
2022-10-12T20:49:44.657Z,14.30
2022-10-12T20:52:11.505Z,14.30
2022-10-12T20:54:40.826Z,14.40
2022-10-12T20:57:07.647Z,14.40
2022-10-12T20:59:37.065Z,14.50
2022-10-12T21:02:04.313Z,14.50
2022-10-12T21:04:36.082Z,14.50
2022-10-12T21:07:05.250Z,14.50
2022-10-12T21:09:32.106Z,14.60
2022-10-12T21:11:58.925Z,14.60
2022-10-12T21:14:28.434Z,14.50
2022-10-12T21:16:55.402Z,14.50
2022-10-12T21:19:22.222Z,14.50
2022-10-12T21:21:49.177Z,14.50
2022-10-12T21:24:16.367Z,14.50
2022-10-12T21:26:43.582Z,14.60
2022-10-12T21:29:10.726Z,14.50
2022-10-12T21:31:38.012Z,14.60
2022-10-12T21:34:05.945Z,14.50
2022-10-12T21:36:33.698Z,14.50
2022-10-12T21:39:00.541Z,14.50
2022-10-12T21:41:28.310Z,14.50
2022-10-12T21:43:55.380Z,14.50
2022-10-12T21:46:23.541Z,14.50
2022-10-12T21:48:50.812Z,14.60
2022-10-12T21:51:18.393Z,14.60
2022-10-12T21:53:45.581Z,14.60
2022-10-12T21:56:16.316Z,14.60
2022-10-12T21:58:43.659Z,14.60
2022-10-12T22:01:11.862Z,14.50
2022-10-12T22:03:38.724Z,14.60
2022-10-12T22:06:05.777Z,14.60
2022-10-12T22:08:32.822Z,14.60
2022-10-12T22:11:07.708Z,14.60
2022-10-12T22:13:35.171Z,14.60
2022-10-12T22:16:06.525Z,14.60
2022-10-12T22:18:34.004Z,14.60
2022-10-12T22:21:05.420Z,14.60
2022-10-12T22:23:32.662Z,14.60
2022-10-12T22:26:00.510Z,14.60
2022-10-12T22:28:27.361Z,14.60
2022-10-12T22:30:54.222Z,14.60
2022-10-12T22:33:21.064Z,14.60
2022-10-12T22:35:54.444Z,14.50
2022-10-12T22:38:21.505Z,14.50
2022-10-12T22:41:07.382Z,14.50
2022-10-12T22:43:34.673Z,14.50
2022-10-12T22:46:01.498Z,14.50
2022-10-12T22:48:29.010Z,14.50
2022-10-12T22:50:56.016Z,14.50
2022-10-12T22:53:23.949Z,14.50
2022-10-12T22:55:55.735Z,14.50
2022-10-12T22:58:22.648Z,14.50
2022-10-12T23:00:49.541Z,14.50
2022-10-12T23:03:16.397Z,14.50
2022-10-12T23:05:49.838Z,14.50
2022-10-12T23:08:16.677Z,14.50
2022-10-12T23:10:43.553Z,14.50
2022-10-12T23:13:10.485Z,14.50
2022-10-12T23:15:37.405Z,14.50
2022-10-12T23:18:04.481Z,14.50
2022-10-12T23:20:31.362Z,14.50
2022-10-12T23:22:58.439Z,14.50
2022-10-12T23:25:25.283Z,14.50
2022-10-12T23:27:52.128Z,14.50
2022-10-12T23:30:18.953Z,14.50
2022-10-12T23:32:45.802Z,14.50
2022-10-12T23:35:12.657Z,14.50
2022-10-12T23:37:43.378Z,14.50
2022-10-12T23:40:11.764Z,14.50
2022-10-12T23:42:38.605Z,14.50
2022-10-12T23:45:05.951Z,14.50
2022-10-12T23:47:32.835Z,14.50
2022-10-12T23:50:00.052Z,14.50
2022-10-12T23:52:26.928Z,14.50
2022-10-12T23:54:53.736Z,14.40
2022-10-12T23:57:41.941Z,14.40
